Time;durP1;ratioP1;P1;durP2;ratioP2;P2;SDS_P1;SDS_P2;PMS_P1;PMS_P2;Temp;Humidity;BMP_temperature;BMP_pressure;BME280_temperature;BME280_humidity;BME280_pressure;Samples;Min_cycle;Max_cycle;Signal;HPM_P1;HPM_P2
2023/09/27 00:00:39;;;;;;;18.77;9.10;;;;;;;;;;4994365;28;92569;-63
2023/09/27 00:03:05;;;;;;;12.77;9.02;;;;;;;;;;4997283;28;93122;-63
2023/09/27 00:05:32;;;;;;;13.07;9.73;;;;;;;;;;4994955;28;96719;-63
2023/09/27 00:07:59;;;;;;;13.65;9.65;;;;;;;;;;4995358;28;92733;-63
2023/09/27 00:10:26;;;;;;;14.32;8.85;;;;;;;;;;4987742;28;93395;-64
2023/09/27 00:12:53;;;;;;;17.33;10.43;;;;;;;;;;4997776;28;93356;-63
2023/09/27 00:15:19;;;;;;;11.05;8.60;;;;;;;;;;4990943;28;93190;-63
2023/09/27 00:17:46;;;;;;;15.30;8.68;;;;;;;;;;4997930;28;93350;-64
2023/09/27 00:20:15;;;;;;;13.88;8.45;;;;;;;;;;4998662;28;92624;-63
2023/09/27 00:22:43;;;;;;;12.23;8.68;;;;;;;;;;4997463;28;94367;-63
2023/09/27 00:25:09;;;;;;;12.05;8.75;;;;;;;;;;4995646;28;94686;-64
2023/09/27 00:27:39;;;;;;;15.20;9.50;;;;;;;;;;4996600;28;92499;-65
2023/09/27 00:30:09;;;;;;;19.27;9.33;;;;;;;;;;4995472;28;95378;-64
2023/09/27 00:32:35;;;;;;;12.87;8.80;;;;;;;;;;4996641;28;93223;-64
2023/09/27 00:35:02;;;;;;;10.63;8.27;;;;;;;;;;4997162;28;93003;-63
2023/09/27 00:37:31;;;;;;;13.18;8.70;;;;;;;;;;4993314;28;93243;-63
2023/09/27 00:39:57;;;;;;;11.23;8.73;;;;;;;;;;4993182;28;92539;-63
2023/09/27 00:42:24;;;;;;;16.77;8.63;;;;;;;;;;4996032;28;93117;-64
2023/09/27 00:44:50;;;;;;;15.82;8.60;;;;;;;;;;5000573;28;94483;-64
2023/09/27 00:47:16;;;;;;;12.77;8.18;;;;;;;;;;4992743;28;93649;-64
2023/09/27 00:49:43;;;;;;;11.85;8.55;;;;;;;;;;4995245;28;94200;-64
2023/09/27 00:52:09;;;;;;;12.23;8.27;;;;;;;;;;4996997;28;93989;-63
2023/09/27 00:54:36;;;;;;;14.98;8.63;;;;;;;;;;4993002;28;95635;-64
2023/09/27 00:57:03;;;;;;;14.05;8.75;;;;;;;;;;4991668;28;94122;-64
2023/09/27 00:59:29;;;;;;;12.80;8.70;;;;;;;;;;4996418;28;92671;-64
2023/09/27 01:01:56;;;;;;;12.35;8.93;;;;;;;;;;4991307;28;94243;-64
2023/09/27 01:04:23;;;;;;;19.02;9.10;;;;;;;;;;4991561;28;93399;-63
2023/09/27 01:06:50;;;;;;;12.38;8.45;;;;;;;;;;4987821;28;92726;-63
2023/09/27 01:09:17;;;;;;;13.75;8.98;;;;;;;;;;4984493;28;93092;-63
2023/09/27 01:11:46;;;;;;;15.85;9.60;;;;;;;;;;4988038;28;92742;-63
2023/09/27 01:14:13;;;;;;;17.92;10.02;;;;;;;;;;4997246;28;92509;-64
2023/09/27 01:16:40;;;;;;;11.32;9.07;;;;;;;;;;4993029;28;93390;-64
2023/09/27 01:19:06;;;;;;;12.93;9.55;;;;;;;;;;4984082;28;96708;-63
2023/09/27 01:21:32;;;;;;;12.85;8.57;;;;;;;;;;4988812;28;95595;-64
2023/09/27 01:23:59;;;;;;;15.35;9.52;;;;;;;;;;4990256;28;93436;-63
2023/09/27 01:26:26;;;;;;;20.08;9.88;;;;;;;;;;4989719;28;92919;-63
2023/09/27 01:28:53;;;;;;;14.32;9.40;;;;;;;;;;4993823;28;93823;-64
2023/09/27 01:31:20;;;;;;;13.50;9.40;;;;;;;;;;4990656;28;94459;-65
2023/09/27 01:33:47;;;;;;;12.43;8.98;;;;;;;;;;4988660;28;92586;-64
2023/09/27 01:36:13;;;;;;;13.55;9.27;;;;;;;;;;4994079;28;94424;-65
2023/09/27 01:38:39;;;;;;;14.90;9.93;;;;;;;;;;4989544;28;92644;-64
2023/09/27 01:41:06;;;;;;;12.90;9.90;;;;;;;;;;4993853;28;94210;-64
2023/09/27 01:43:32;;;;;;;12.45;10.25;;;;;;;;;;4987844;28;94912;-64
2023/09/27 01:45:58;;;;;;;19.35;9.95;;;;;;;;;;4988519;28;92612;-64
2023/09/27 01:48:25;;;;;;;10.73;9.45;;;;;;;;;;4991809;28;95869;-65
2023/09/27 01:50:51;;;;;;;14.07;9.27;;;;;;;;;;4990195;28;93945;-65
2023/09/27 01:53:18;;;;;;;11.68;9.15;;;;;;;;;;4988800;28;93674;-64
2023/09/27 01:55:47;;;;;;;16.52;9.93;;;;;;;;;;4994700;28;93131;-66
2023/09/27 01:58:13;;;;;;;15.65;9.27;;;;;;;;;;4990250;28;92927;-66
2023/09/27 02:00:40;;;;;;;18.38;10.85;;;;;;;;;;4993359;28;93146;-66
2023/09/27 02:03:06;;;;;;;11.32;8.93;;;;;;;;;;4987013;28;93393;-66
2023/09/27 02:05:33;;;;;;;10.30;8.63;;;;;;;;;;4991959;28;92604;-65
2023/09/27 02:07:59;;;;;;;12.70;8.90;;;;;;;;;;4985216;28;95150;-65
2023/09/27 02:10:26;;;;;;;11.45;9.40;;;;;;;;;;4991242;28;94476;-64
2023/09/27 02:12:52;;;;;;;12.88;9.82;;;;;;;;;;4991135;28;92663;-64
2023/09/27 02:15:19;;;;;;;12.07;9.23;;;;;;;;;;4990212;28;93516;-64
2023/09/27 02:17:45;;;;;;;12.63;9.18;;;;;;;;;;4996882;28;93387;-64
2023/09/27 02:20:17;;;;;;;16.73;9.35;;;;;;;;;;4992318;28;92584;-64
2023/09/27 02:22:47;;;;;;;14.07;8.90;;;;;;;;;;4994439;28;93420;-64
2023/09/27 02:25:14;;;;;;;12.85;9.52;;;;;;;;;;4992521;28;92296;-63
2023/09/27 02:27:42;;;;;;;16.60;9.55;;;;;;;;;;4993429;28;92675;-64
2023/09/27 02:30:12;;;;;;;12.10;9.48;;;;;;;;;;4988318;28;93721;-64
2023/09/27 02:32:39;;;;;;;12.77;9.37;;;;;;;;;;4986529;28;95094;-63
2023/09/27 02:35:06;;;;;;;12.68;9.75;;;;;;;;;;4993077;28;95490;-64
2023/09/27 02:37:33;;;;;;;14.25;9.10;;;;;;;;;;4991832;28;93409;-64
2023/09/27 02:39:59;;;;;;;10.40;8.88;;;;;;;;;;4994116;28;92539;-65
2023/09/27 02:42:25;;;;;;;10.80;9.23;;;;;;;;;;4991903;28;93261;-65
2023/09/27 02:44:52;;;;;;;12.23;9.32;;;;;;;;;;4992350;28;92586;-64
2023/09/27 02:47:18;;;;;;;11.52;9.63;;;;;;;;;;4989577;28;93088;-64
2023/09/27 02:49:45;;;;;;;12.88;8.90;;;;;;;;;;4990590;28;92603;-64
2023/09/27 02:52:11;;;;;;;13.60;9.18;;;;;;;;;;4991614;28;92479;-65
2023/09/27 02:54:39;;;;;;;12.27;8.68;;;;;;;;;;4991402;28;93253;-65
2023/09/27 02:57:05;;;;;;;9.30;8.32;;;;;;;;;;4987402;28;95751;-64
2023/09/27 02:59:32;;;;;;;14.15;8.73;;;;;;;;;;4990745;28;92720;-64
2023/09/27 03:01:59;;;;;;;12.90;9.18;;;;;;;;;;4991397;28;93477;-64
2023/09/27 03:04:27;;;;;;;12.85;9.57;;;;;;;;;;4989979;28;94033;-63
2023/09/27 03:06:54;;;;;;;11.50;8.77;;;;;;;;;;4988569;28;93145;-64
2023/09/27 03:09:20;;;;;;;12.38;9.50;;;;;;;;;;4989937;28;93410;-63
2023/09/27 03:11:47;;;;;;;14.38;8.85;;;;;;;;;;4991199;28;92532;-64
2023/09/27 03:14:14;;;;;;;11.10;8.52;;;;;;;;;;4990426;28;94328;-64
2023/09/27 03:16:40;;;;;;;12.40;9.10;;;;;;;;;;4984080;28;93409;-63
2023/09/27 03:19:06;;;;;;;11.38;8.93;;;;;;;;;;4984356;28;94318;-63
2023/09/27 03:21:33;;;;;;;13.88;9.48;;;;;;;;;;4984666;28;95369;-63
2023/09/27 03:23:59;;;;;;;9.95;8.57;;;;;;;;;;4994707;28;93415;-63
2023/09/27 03:26:26;;;;;;;10.52;8.13;;;;;;;;;;4990925;28;93098;-63
2023/09/27 03:28:52;;;;;;;12.88;9.05;;;;;;;;;;4990224;28;93459;-63
2023/09/27 03:31:19;;;;;;;13.25;9.68;;;;;;;;;;4989812;28;92442;-63
2023/09/27 03:33:46;;;;;;;12.75;9.35;;;;;;;;;;4991821;28;94403;-63
2023/09/27 03:36:13;;;;;;;14.02;8.57;;;;;;;;;;4991721;28;93271;-63
2023/09/27 03:38:40;;;;;;;15.00;8.07;;;;;;;;;;4992234;28;91817;-64
2023/09/27 03:41:08;;;;;;;10.75;8.52;;;;;;;;;;4989692;28;94150;-63
2023/09/27 03:43:34;;;;;;;14.45;8.80;;;;;;;;;;4991143;28;93372;-62
2023/09/27 03:46:02;;;;;;;11.27;8.60;;;;;;;;;;4993698;28;96422;-63
2023/09/27 03:48:28;;;;;;;9.02;7.97;;;;;;;;;;4986221;28;94506;-63
2023/09/27 03:50:55;;;;;;;12.95;8.88;;;;;;;;;;4989070;28;92839;-63
2023/09/27 03:53:21;;;;;;;11.48;9.30;;;;;;;;;;4987313;28;94319;-63
2023/09/27 03:55:47;;;;;;;13.60;10.07;;;;;;;;;;4989061;28;93810;-63
2023/09/27 03:58:14;;;;;;;12.35;10.25;;;;;;;;;;4990414;28;93125;-63
2023/09/27 04:00:40;;;;;;;16.08;9.82;;;;;;;;;;4990206;28;93632;-64
2023/09/27 04:03:07;;;;;;;15.65;10.13;;;;;;;;;;4986393;28;93531;-64
2023/09/27 04:05:34;;;;;;;13.98;10.00;;;;;;;;;;4989228;28;92583;-64
2023/09/27 04:08:00;;;;;;;12.65;9.85;;;;;;;;;;4987280;28;94441;-64
2023/09/27 04:10:28;;;;;;;16.17;9.63;;;;;;;;;;4984522;28;95007;-63
2023/09/27 04:12:55;;;;;;;12.25;9.38;;;;;;;;;;4991438;28;95486;-64
2023/09/27 04:15:21;;;;;;;13.43;9.20;;;;;;;;;;4990517;28;94679;-64
2023/09/27 04:17:48;;;;;;;15.23;8.88;;;;;;;;;;4987833;28;92496;-64
2023/09/27 04:20:16;;;;;;;11.88;8.63;;;;;;;;;;4990392;28;93729;-63
2023/09/27 04:22:43;;;;;;;9.77;8.77;;;;;;;;;;4991831;28;93324;-65
2023/09/27 04:25:12;;;;;;;11.60;8.88;;;;;;;;;;4990212;28;92678;-66
2023/09/27 04:27:40;;;;;;;12.57;8.55;;;;;;;;;;4992697;28;94247;-65
2023/09/27 04:30:12;;;;;;;12.52;9.15;;;;;;;;;;4984701;28;93282;-65
2023/09/27 04:32:42;;;;;;;11.75;8.50;;;;;;;;;;4990665;28;93111;-64
2023/09/27 04:35:09;;;;;;;11.63;8.18;;;;;;;;;;4993679;28;95799;-64
2023/09/27 04:37:36;;;;;;;13.93;9.00;;;;;;;;;;4990660;28;92511;-64
2023/09/27 04:40:12;;;;;;;13.10;9.55;;;;;;;;;;4994479;28;94239;-64
2023/09/27 04:42:39;;;;;;;11.32;9.10;;;;;;;;;;4993402;28;93370;-64
2023/09/27 04:45:06;;;;;;;11.65;8.65;;;;;;;;;;4991176;28;92707;-64
2023/09/27 04:47:33;;;;;;;12.88;8.85;;;;;;;;;;4995660;28;94201;-64
2023/09/27 04:50:00;;;;;;;12.02;8.88;;;;;;;;;;4994260;28;94161;-63
2023/09/27 04:52:26;;;;;;;16.02;8.82;;;;;;;;;;4992984;28;94098;-64
2023/09/27 04:54:56;;;;;;;10.85;9.00;;;;;;;;;;4989599;28;93368;-64
2023/09/27 04:57:23;;;;;;;10.68;9.35;;;;;;;;;;4989422;28;94118;-64
2023/09/27 04:59:53;;;;;;;12.38;8.98;;;;;;;;;;4987701;28;95103;-64
2023/09/27 05:02:20;;;;;;;13.18;9.20;;;;;;;;;;4991809;28;94431;-65
2023/09/27 05:04:47;;;;;;;11.20;9.10;;;;;;;;;;4989216;28;94076;-64
2023/09/27 05:07:16;;;;;;;21.60;9.13;;;;;;;;;;4989340;28;93189;-64
2023/09/27 05:09:43;;;;;;;12.48;10.07;;;;;;;;;;4993824;28;93581;-64
2023/09/27 05:12:09;;;;;;;12.43;9.27;;;;;;;;;;4995674;28;92528;-62
2023/09/27 05:14:35;;;;;;;16.00;9.50;;;;;;;;;;4993215;28;93717;-64
2023/09/27 05:17:02;;;;;;;14.63;9.65;;;;;;;;;;4992438;28;91816;-64
2023/09/27 05:19:28;;;;;;;15.35;10.02;;;;;;;;;;4990010;28;92590;-63
2023/09/27 05:21:55;;;;;;;11.25;9.18;;;;;;;;;;4984499;28;93457;-63
2023/09/27 05:24:21;;;;;;;14.05;9.52;;;;;;;;;;4985128;28;95017;-63
2023/09/27 05:26:47;;;;;;;15.75;9.65;;;;;;;;;;4993869;28;95530;-63
2023/09/27 05:29:14;;;;;;;13.40;8.95;;;;;;;;;;4993056;28;93467;-64
2023/09/27 05:31:41;;;;;;;13.70;9.75;;;;;;;;;;4991761;28;92785;-64
2023/09/27 05:34:07;;;;;;;11.80;9.68;;;;;;;;;;4994649;28;93140;-64
2023/09/27 05:36:34;;;;;;;14.40;10.45;;;;;;;;;;4992342;28;92587;-63
2023/09/27 05:39:02;;;;;;;16.83;11.40;;;;;;;;;;4992453;28;93072;-64
2023/09/27 05:41:28;;;;;;;15.45;10.77;;;;;;;;;;4989044;28;91691;-64
2023/09/27 05:43:55;;;;;;;13.75;11.10;;;;;;;;;;4989943;28;92656;-64
2023/09/27 05:46:22;;;;;;;20.42;10.85;;;;;;;;;;4990370;28;94949;-64
2023/09/27 05:48:49;;;;;;;18.70;10.80;;;;;;;;;;4988656;28;96845;-64
2023/09/27 05:51:16;;;;;;;14.65;11.02;;;;;;;;;;4989646;28;92563;-64
2023/09/27 05:53:42;;;;;;;15.38;11.45;;;;;;;;;;4989904;28;96264;-64
2023/09/27 05:56:08;;;;;;;25.00;12.57;;;;;;;;;;4994521;28;94396;-65
2023/09/27 05:58:36;;;;;;;22.75;11.30;;;;;;;;;;4991870;28;93495;-64
2023/09/27 06:01:04;;;;;;;20.83;10.95;;;;;;;;;;4992255;28;94496;-64
2023/09/27 06:03:31;;;;;;;19.98;12.05;;;;;;;;;;4993440;28;94428;-63
2023/09/27 06:05:58;;;;;;;16.60;11.38;;;;;;;;;;4992440;28;94681;-63
2023/09/27 06:08:25;;;;;;;19.02;11.70;;;;;;;;;;4982803;28;93482;-63
2023/09/27 06:10:51;;;;;;;17.02;10.90;;;;;;;;;;4992494;28;92702;-63
2023/09/27 06:13:18;;;;;;;18.15;11.00;;;;;;;;;;4987226;28;95055;-62
2023/09/27 06:15:44;;;;;;;19.55;11.63;;;;;;;;;;4994709;28;93364;-63
2023/09/27 06:18:12;;;;;;;15.70;10.45;;;;;;;;;;4991030;28;93150;-64
2023/09/27 06:20:40;;;;;;;13.73;9.77;;;;;;;;;;4992635;28;92713;-64
2023/09/27 06:23:06;;;;;;;21.95;11.50;;;;;;;;;;4995846;28;92617;-64
2023/09/27 06:25:35;;;;;;;17.00;10.40;;;;;;;;;;4986406;28;93530;-63
2023/09/27 06:28:01;;;;;;;18.73;10.90;;;;;;;;;;4989922;28;93379;-63
2023/09/27 06:30:28;;;;;;;19.52;10.73;;;;;;;;;;4991344;28;92764;-63
2023/09/27 06:32:54;;;;;;;16.52;10.18;;;;;;;;;;4987438;28;94295;-64
2023/09/27 06:35:23;;;;;;;22.10;11.30;;;;;;;;;;4992800;28;93543;-63
2023/09/27 06:37:49;;;;;;;14.90;10.55;;;;;;;;;;4993611;28;95315;-63
2023/09/27 06:40:17;;;;;;;23.27;11.98;;;;;;;;;;4992686;28;92700;-63
2023/09/27 06:42:44;;;;;;;19.13;11.45;;;;;;;;;;4991550;28;92429;-63
2023/09/27 06:45:11;;;;;;;25.50;12.38;;;;;;;;;;4987724;28;94167;-64
2023/09/27 06:47:40;;;;;;;18.10;12.20;;;;;;;;;;4992274;28;93427;-64
2023/09/27 06:50:10;;;;;;;20.55;11.85;;;;;;;;;;4997521;28;92520;-64
2023/09/27 06:52:39;;;;;;;27.77;12.20;;;;;;;;;;4992183;28;93905;-64
2023/09/27 06:55:10;;;;;;;20.90;12.00;;;;;;;;;;4992584;28;92796;-64
2023/09/27 06:57:40;;;;;;;16.42;11.70;;;;;;;;;;4988999;28;93772;-63
2023/09/27 07:00:17;;;;;;;22.95;12.18;;;;;;;;;;4991916;28;93212;-63
2023/09/27 07:02:47;;;;;;;23.95;12.80;;;;;;;;;;4989700;28;95226;-63
2023/09/27 07:05:14;;;;;;;;;;;;;;;;;;4990894;28;95493;-63
2023/09/27 07:07:41;;;;;;;19.00;11.85;;;;;;;;;;4989581;28;124233;-63
2023/09/27 07:10:08;;;;;;;19.77;12.20;;;;;;;;;;4985675;28;93199;-64
2023/09/27 07:12:35;;;;;;;14.73;11.77;;;;;;;;;;4989005;28;93048;-63
2023/09/27 07:15:04;;;;;;;16.25;11.65;;;;;;;;;;4992246;28;95435;-64
2023/09/27 07:17:31;;;;;;;17.52;10.98;;;;;;;;;;4988836;28;92732;-63
2023/09/27 07:19:58;;;;;;;19.58;11.85;;;;;;;;;;4988673;28;95837;-63
2023/09/27 07:22:24;;;;;;;17.88;12.80;;;;;;;;;;4992922;28;95785;-63
2023/09/27 07:24:51;;;;;;;22.42;11.50;;;;;;;;;;4992553;28;92982;-63
2023/09/27 07:27:17;;;;;;;18.80;11.63;;;;;;;;;;4989702;28;94932;-63
2023/09/27 07:29:43;;;;;;;18.23;11.07;;;;;;;;;;4988658;28;92927;-65
2023/09/27 07:32:10;;;;;;;18.52;12.38;;;;;;;;;;4991986;28;94250;-68
2023/09/27 07:34:37;;;;;;;20.42;12.55;;;;;;;;;;4990333;28;94476;-65
2023/09/27 07:37:04;;;;;;;17.85;11.98;;;;;;;;;;4991027;28;92635;-64
2023/09/27 07:39:31;;;;;;;18.58;12.52;;;;;;;;;;4984465;28;92548;-65
2023/09/27 07:41:58;;;;;;;23.30;12.18;;;;;;;;;;4986365;28;94210;-64
2023/09/27 07:44:27;;;;;;;20.08;13.10;;;;;;;;;;4989783;28;91739;-64
2023/09/27 07:46:54;;;;;;;20.23;12.90;;;;;;;;;;4990550;28;93958;-65
2023/09/27 07:49:20;;;;;;;24.55;13.13;;;;;;;;;;4989217;28;92469;-64
2023/09/27 07:51:47;;;;;;;18.75;12.73;;;;;;;;;;4985808;28;94993;-65
2023/09/27 07:54:13;;;;;;;19.13;12.13;;;;;;;;;;4990538;28;93402;-65
2023/09/27 07:56:39;;;;;;;19.50;13.07;;;;;;;;;;4989743;28;92545;-66
2023/09/27 07:59:06;;;;;;;17.20;12.27;;;;;;;;;;4991408;28;94231;-65
2023/09/27 08:01:33;;;;;;;22.25;13.60;;;;;;;;;;4991198;28;93423;-65
2023/09/27 08:04:05;;;;;;;20.67;14.13;;;;;;;;;;4991322;28;92615;-65
2023/09/27 08:06:36;;;;;;;17.70;14.30;;;;;;;;;;4989196;28;93495;-65
2023/09/27 08:09:02;;;;;;;24.70;14.65;;;;;;;;;;4987348;28;91754;-65
2023/09/27 08:11:29;;;;;;;19.25;13.95;;;;;;;;;;4992413;28;92548;-65
2023/09/27 08:13:55;;;;;;;22.73;16.38;;;;;;;;;;4989974;28;93842;-66
2023/09/27 08:16:21;;;;;;;21.27;15.75;;;;;;;;;;4992520;28;94858;-65
2023/09/27 08:18:48;;;;;;;20.48;17.48;;;;;;;;;;4994814;28;95583;-65
2023/09/27 08:21:14;;;;;;;26.10;17.02;;;;;;;;;;4993687;28;93968;-65
2023/09/27 08:23:41;;;;;;;22.55;16.30;;;;;;;;;;4994124;28;92608;-66
2023/09/27 08:26:12;;;;;;;27.60;16.35;;;;;;;;;;4995989;28;93173;-65
2023/09/27 08:28:39;;;;;;;21.88;14.88;;;;;;;;;;4987329;28;93532;-66
2023/09/27 08:31:06;;;;;;;23.25;15.93;;;;;;;;;;4993467;28;93221;-66
2023/09/27 08:33:33;;;;;;;21.58;14.25;;;;;;;;;;4993097;28;92738;-66
2023/09/27 08:35:59;;;;;;;20.25;13.73;;;;;;;;;;4994954;28;92543;-66
2023/09/27 08:38:26;;;;;;;26.17;14.50;;;;;;;;;;4987742;28;93899;-66
2023/09/27 08:40:52;;;;;;;21.35;14.32;;;;;;;;;;4992492;28;96864;-67
2023/09/27 08:43:20;;;;;;;19.38;12.77;;;;;;;;;;4992920;28;92975;-66
2023/09/27 08:45:46;;;;;;;21.95;12.80;;;;;;;;;;4992012;28;93197;-67
2023/09/27 08:48:18;;;;;;;16.80;12.57;;;;;;;;;;4994248;28;94585;-66
2023/09/27 08:50:44;;;;;;;17.00;12.18;;;;;;;;;;4993014;28;92926;-67
2023/09/27 08:53:11;;;;;;;22.98;12.55;;;;;;;;;;4988074;28;93713;-67
2023/09/27 08:55:40;;;;;;;18.33;11.05;;;;;;;;;;4993389;28;92942;-66
2023/09/27 08:58:08;;;;;;;17.08;10.90;;;;;;;;;;4994479;28;93134;-66
2023/09/27 09:00:34;;;;;;;20.35;11.15;;;;;;;;;;4992259;28;93434;-67
2023/09/27 09:03:01;;;;;;;20.85;12.57;;;;;;;;;;4990581;28;92636;-66
2023/09/27 09:05:29;;;;;;;20.02;11.50;;;;;;;;;;4993095;28;95024;-65
2023/09/27 09:07:57;;;;;;;18.52;11.32;;;;;;;;;;4994223;28;93351;-66
2023/09/27 09:10:23;;;;;;;23.63;11.25;;;;;;;;;;4997761;28;92392;-66
2023/09/27 09:12:51;;;;;;;20.83;11.35;;;;;;;;;;4988761;28;93455;-65
2023/09/27 09:15:40;;;;;;;22.58;10.88;;;;;;;;;;4993766;28;92610;-65
2023/09/27 09:18:08;;;;;;;;;;;;;;;;;;4992398;28;94226;-64
2023/09/27 09:21:14;;;;;;;25.35;11.73;;;;;;;;;;4991792;28;123915;-66
2023/09/27 09:23:35;;;;;;;17.90;10.15;;;;;;;;;;4992421;28;91831;-66
2023/09/27 09:26:09;;;;;;;22.15;10.40;;;;;;;;;;4994678;28;93466;-67
2023/09/27 09:28:55;;;;;;;28.52;11.27;;;;;;;;;;4988734;28;94431;-67
2023/09/27 09:31:27;;;;;;;19.83;11.02;;;;;;;;;;4992329;28;95221;-66
2023/09/27 09:34:03;;;;;;;21.77;12.25;;;;;;;;;;4993667;28;95567;-66
2023/09/27 09:36:30;;;;;;;18.45;11.70;;;;;;;;;;4994525;28;92447;-71
2023/09/27 09:39:04;;;;;;;18.70;12.57;;;;;;;;;;4989040;28;93107;-69
2023/09/27 09:41:43;;;;;;;25.38;13.23;;;;;;;;;;4993312;28;94885;-68
2023/09/27 09:44:20;;;;;;;19.75;12.70;;;;;;;;;;4985926;28;92965;-67
2023/09/27 09:46:47;;;;;;;18.48;12.85;;;;;;;;;;4988845;28;93313;-66
2023/09/27 09:49:15;;;;;;;25.67;12.65;;;;;;;;;;4994023;28;92683;-66
2023/09/27 09:51:45;;;;;;;19.13;11.98;;;;;;;;;;4990210;28;92530;-67
2023/09/27 09:54:17;;;;;;;25.27;12.05;;;;;;;;;;4990769;28;94071;-66
2023/09/27 09:56:45;;;;;;;22.25;10.90;;;;;;;;;;4985327;28;95887;-66
2023/09/27 09:59:34;;;;;;;15.88;10.52;;;;;;;;;;4989876;28;95545;-62
2023/09/27 10:02:04;;;;;;;19.15;9.77;;;;;;;;;;4991850;28;92686;-62
2023/09/27 10:04:30;;;;;;;25.70;10.85;;;;;;;;;;4991788;28;92463;-62
2023/09/27 10:06:58;;;;;;;22.80;10.40;;;;;;;;;;4990403;28;93346;-63
2023/09/27 10:09:28;;;;;;;18.20;10.88;;;;;;;;;;4992848;28;93749;-63
2023/09/27 10:11:55;;;;;;;22.88;12.25;;;;;;;;;;4992703;28;92546;-63
2023/09/27 10:14:22;;;;;;;18.00;12.70;;;;;;;;;;4992445;28;93227;-64
2023/09/27 10:16:48;;;;;;;18.27;13.05;;;;;;;;;;4986750;28;94377;-64
2023/09/27 10:19:33;;;;;;;29.65;13.82;;;;;;;;;;4995206;28;92625;-64
2023/09/27 10:22:07;;;;;;;19.83;12.75;;;;;;;;;;4988705;28;95740;-64
2023/09/27 10:24:37;;;;;;;18.95;13.45;;;;;;;;;;4991729;28;92473;-63
2023/09/27 10:27:04;;;;;;;19.02;13.25;;;;;;;;;;4988550;28;93176;-63
2023/09/27 10:29:30;;;;;;;17.55;13.65;;;;;;;;;;4991860;28;93393;-63
2023/09/27 10:31:56;;;;;;;24.02;14.02;;;;;;;;;;4991373;28;92488;-64
2023/09/27 10:34:29;;;;;;;20.52;13.57;;;;;;;;;;4991387;28;93172;-63
2023/09/27 10:37:00;;;;;;;18.58;12.95;;;;;;;;;;4988531;28;94458;-63
2023/09/27 10:40:02;;;;;;;31.15;13.48;;;;;;;;;;4993121;28;91705;-64
2023/09/27 10:42:42;;;;;;;17.15;12.68;;;;;;;;;;4989556;28;93638;-64
2023/09/27 10:45:09;;;;;;;21.52;12.98;;;;;;;;;;4992581;28;92567;-64
2023/09/27 10:47:36;;;;;;;23.25;12.05;;;;;;;;;;4986976;28;95543;-64
2023/09/27 10:50:03;;;;;;;19.33;12.85;;;;;;;;;;4990963;28;93464;-64
2023/09/27 10:52:29;;;;;;;17.92;10.90;;;;;;;;;;4992160;28;92644;-64
2023/09/27 10:55:07;;;;;;;19.48;11.52;;;;;;;;;;4986368;28;93081;-64
2023/09/27 10:57:34;;;;;;;21.42;11.35;;;;;;;;;;4989936;28;93361;-63
2023/09/27 11:00:01;;;;;;;32.92;11.63;;;;;;;;;;4992229;28;92489;-63
2023/09/27 11:02:31;;;;;;;11.85;9.40;;;;;;;;;;4988747;28;93702;-63
2023/09/27 11:04:57;;;;;;;15.00;10.00;;;;;;;;;;4992942;28;91791;-64
2023/09/27 11:07:40;;;;;;;12.55;8.70;;;;;;;;;;4989984;28;93389;-63
2023/09/27 11:10:07;;;;;;;10.63;8.18;;;;;;;;;;4989453;28;93626;-66
2023/09/27 11:12:33;;;;;;;15.40;7.97;;;;;;;;;;4989942;28;94857;-65
2023/09/27 11:15:00;;;;;;;15.18;8.63;;;;;;;;;;4992886;28;95407;-66
2023/09/27 11:17:26;;;;;;;16.52;8.77;;;;;;;;;;4990138;28;93535;-66
2023/09/27 11:19:53;;;;;;;15.80;8.40;;;;;;;;;;4991990;28;92509;-66
2023/09/27 11:22:28;;;;;;;12.32;8.18;;;;;;;;;;4991586;28;93217;-66
2023/09/27 11:24:55;;;;;;;14.35;7.88;;;;;;;;;;4992367;28;94696;-66
2023/09/27 11:27:22;;;;;;;14.32;7.40;;;;;;;;;;4990372;28;94755;-66
2023/09/27 11:29:52;;;;;;;12.55;7.25;;;;;;;;;;4990500;28;92731;-66
2023/09/27 11:32:19;;;;;;;12.40;7.03;;;;;;;;;;4990257;28;92614;-66
2023/09/27 11:34:58;;;;;;;8.40;6.18;;;;;;;;;;4991776;28;93222;-65
2023/09/27 11:37:25;;;;;;;12.52;6.82;;;;;;;;;;4982283;28;96872;-65
2023/09/27 11:39:52;;;;;;;10.15;6.90;;;;;;;;;;4991468;28;92565;-65
2023/09/27 11:42:22;;;;;;;12.82;6.43;;;;;;;;;;4990620;28;93079;-65
2023/09/27 11:45:05;;;;;;;14.80;6.10;;;;;;;;;;4987020;28;93366;-65
2023/09/27 11:47:34;;;;;;;8.98;5.10;;;;;;;;;;4993616;28;92467;-65
2023/09/27 11:50:01;;;;;;;7.88;5.30;;;;;;;;;;4983871;28;94079;-65
2023/09/27 11:52:27;;;;;;;7.88;4.82;;;;;;;;;;4991215;28;94036;-67
2023/09/27 11:54:54;;;;;;;9.60;4.10;;;;;;;;;;4992946;28;93212;-66
2023/09/27 11:57:20;;;;;;;11.32;4.03;;;;;;;;;;4986662;28;93429;-66
2023/09/27 11:59:47;;;;;;;12.45;3.92;;;;;;;;;;4990581;28;92552;-66
2023/09/27 12:02:18;;;;;;;7.00;4.50;;;;;;;;;;4986464;28;94905;-66
2023/09/27 12:04:53;;;;;;;12.60;3.95;;;;;;;;;;4992148;28;94406;-66
2023/09/27 12:07:20;;;;;;;7.85;3.92;;;;;;;;;;4984363;28;92638;-65
2023/09/27 12:09:47;;;;;;;5.40;3.58;;;;;;;;;;4991409;28;93158;-65
2023/09/27 12:12:13;;;;;;;11.35;3.65;;;;;;;;;;4991214;28;93371;-66
2023/09/27 12:14:40;;;;;;;13.63;4.05;;;;;;;;;;4992568;28;92573;-65
2023/09/27 12:17:07;;;;;;;7.32;2.85;;;;;;;;;;4993620;28;92623;-65
2023/09/27 12:19:34;;;;;;;9.65;5.70;;;;;;;;;;4992503;28;91877;-66
2023/09/27 12:22:00;;;;;;;15.70;14.10;;;;;;;;;;4992250;28;92416;-66
2023/09/27 12:24:27;;;;;;;47.35;42.17;;;;;;;;;;4991136;28;93315;-66
2023/09/27 12:26:53;;;;;;;53.13;47.42;;;;;;;;;;4988595;28;94791;-66
2023/09/27 12:29:19;;;;;;;46.58;41.55;;;;;;;;;;4989979;28;95938;-63
2023/09/27 12:31:46;;;;;;;41.00;36.70;;;;;;;;;;4989650;28;92665;-69
2023/09/27 12:34:12;;;;;;;25.52;23.08;;;;;;;;;;4990009;28;94042;-64
2023/09/27 12:36:39;;;;;;;32.58;28.75;;;;;;;;;;4990877;28;94345;-64
2023/09/27 12:39:05;;;;;;;29.15;26.45;;;;;;;;;;4986242;28;92604;-65
2023/09/27 12:41:31;;;;;;;21.35;19.05;;;;;;;;;;4990531;28;93299;-63
2023/09/27 12:43:58;;;;;;;45.35;40.53;;;;;;;;;;4990916;28;93727;-65
2023/09/27 12:46:24;;;;;;;53.63;47.83;;;;;;;;;;4990108;28;92607;-65
2023/09/27 12:48:51;;;;;;;81.50;73.88;;;;;;;;;;4986416;28;93691;-66
2023/09/27 12:51:18;;;;;;;116.65;104.53;;;;;;;;;;4992696;28;95950;-64
2023/09/27 12:53:45;;;;;;;118.05;105.63;;;;;;;;;;4987542;28;95920;-65
2023/09/27 12:56:12;;;;;;;129.13;118.00;;;;;;;;;;4988523;28;94060;-62
2023/09/27 12:58:42;;;;;;;131.70;120.22;;;;;;;;;;4990080;28;95086;-64
2023/09/27 13:01:14;;;;;;;184.57;167.45;;;;;;;;;;4986826;28;93751;-64
2023/09/27 13:03:40;;;;;;;127.22;114.63;;;;;;;;;;4992096;28;94182;-65
2023/09/27 13:06:08;;;;;;;148.23;133.40;;;;;;;;;;4991161;28;93857;-64
2023/09/27 13:08:35;;;;;;;198.10;179.60;;;;;;;;;;4988555;28;94652;-66
2023/09/27 13:11:02;;;;;;;239.15;214.02;;;;;;;;;;4980232;28;95188;-65
2023/09/27 13:13:31;;;;;;;235.63;213.82;;;;;;;;;;4990653;28;96296;-66
2023/09/27 13:15:58;;;;;;;280.48;252.05;;;;;;;;;;4987189;28;98341;-65
2023/09/27 13:18:24;;;;;;;394.00;357.15;;;;;;;;;;4989243;28;94810;-64
2023/09/27 13:20:51;;;;;;;340.95;307.30;;;;;;;;;;4987108;28;95418;-65
2023/09/27 13:23:18;;;;;;;366.20;330.95;;;;;;;;;;4990404;28;95182;-65
2023/09/27 13:25:54;;;;;;;320.15;289.13;;;;;;;;;;4987640;28;94684;-65
2023/09/27 13:28:20;;;;;;;434.38;391.70;;;;;;;;;;4992658;28;94195;-63
2023/09/27 13:30:47;;;;;;;407.13;367.60;;;;;;;;;;4988267;28;92886;-63
2023/09/27 13:33:15;;;;;;;471.38;423.38;;;;;;;;;;4992676;28;92008;-63
2023/09/27 13:35:41;;;;;;;503.38;454.05;;;;;;;;;;4990565;28;95052;-63
2023/09/27 13:38:08;;;;;;;567.70;510.20;;;;;;;;;;4990655;28;92744;-66
2023/09/27 13:40:35;;;;;;;547.30;490.92;;;;;;;;;;4989163;28;95151;-63
2023/09/27 13:43:01;;;;;;;636.33;569.85;;;;;;;;;;4996622;28;94400;-65
2023/09/27 13:45:28;;;;;;;542.15;485.00;;;;;;;;;;4992348;28;93402;-65
2023/09/27 13:47:54;;;;;;;606.90;542.10;;;;;;;;;;4990310;28;94489;-65
2023/09/27 13:50:21;;;;;;;569.35;509.20;;;;;;;;;;4992503;28;93769;-63
2023/09/27 13:52:47;;;;;;;577.15;514.63;;;;;;;;;;4992893;28;92693;-61
2023/09/27 13:55:14;;;;;;;579.72;519.25;;;;;;;;;;4992845;28;94461;-62
2023/09/27 13:57:41;;;;;;;517.17;462.88;;;;;;;;;;4993142;28;93884;-62
2023/09/27 14:00:09;;;;;;;478.35;428.45;;;;;;;;;;4992540;28;92527;-61
2023/09/27 14:02:36;;;;;;;475.83;425.17;;;;;;;;;;4989220;28;94045;-62
2023/09/27 14:05:03;;;;;;;491.65;440.45;;;;;;;;;;4988101;28;95014;-62
2023/09/27 14:07:30;;;;;;;307.60;277.25;;;;;;;;;;4989804;28;96707;-63
2023/09/27 14:09:57;;;;;;;359.45;323.88;;;;;;;;;;4990446;28;92820;-64
2023/09/27 14:12:23;;;;;;;285.38;256.92;;;;;;;;;;4988957;28;92512;-66
2023/09/27 14:14:50;;;;;;;322.63;292.52;;;;;;;;;;4984804;28;93672;-66
2023/09/27 14:17:17;;;;;;;201.18;182.00;;;;;;;;;;4990391;28;92862;-63
2023/09/27 14:19:44;;;;;;;227.10;203.18;;;;;;;;;;4990241;28;92473;-66
2023/09/27 14:22:10;;;;;;;87.63;78.50;;;;;;;;;;4992487;28;92639;-68
2023/09/27 14:24:37;;;;;;;165.02;149.10;;;;;;;;;;4990675;28;92457;-69